Time;durP1;ratioP1;P1;durP2;ratioP2;P2;SDS_P1;SDS_P2;PMS_P1;PMS_P2;Temp;Humidity;BMP_temperature;BMP_pressure;BME280_temperature;BME280_humidity;BME280_pressure;Samples;Min_cycle;Max_cycle;Signal;HPM_P1;HPM_P2
2022/08/10 00:00:53;;;;;;;5.50;2.47;;;;;;;25.45;42.63;100803.25;5091000;28;20174;-61
2022/08/10 00:03:18;;;;;;;6.07;2.67;;;;;;;25.44;42.47;100796.63;5091244;28;20595;-61
2022/08/10 00:05:43;;;;;;;4.70;2.60;;;;;;;25.44;42.68;100802.41;5090801;28;20179;-61
2022/08/10 00:08:09;;;;;;;5.93;2.50;;;;;;;25.45;42.91;100798.31;5090903;28;20236;-61
2022/08/10 00:10:34;;;;;;;5.13;2.53;;;;;;;25.46;42.66;100804.91;5090901;28;20291;-61
2022/08/10 00:13:00;;;;;;;4.47;2.40;;;;;;;25.47;42.66;100801.59;5091209;28;20179;-61
2022/08/10 00:15:25;;;;;;;5.87;2.67;;;;;;;25.48;42.63;100796.66;5090934;28;20174;-61
2022/08/10 00:17:50;;;;;;;5.30;2.30;;;;;;;25.48;43.04;100797.47;5089806;28;20191;-61
2022/08/10 00:20:16;;;;;;;6.63;2.63;;;;;;;25.49;42.88;100790.44;5090321;28;20173;-61
2022/08/10 00:22:41;;;;;;;5.10;2.80;;;;;;;25.49;42.83;100792.50;5089993;28;20265;-61
2022/08/10 00:25:07;;;;;;;3.57;2.40;;;;;;;25.49;42.48;100795.41;5090345;28;20216;-61
2022/08/10 00:27:33;;;;;;;4.40;2.30;;;;;;;25.47;42.58;100792.94;5090131;28;20209;-61
2022/08/10 00:29:58;;;;;;;4.17;2.50;;;;;;;25.48;42.52;100788.78;5090345;28;20524;-61
2022/08/10 00:32:24;;;;;;;5.73;2.33;;;;;;;25.48;42.55;100797.47;5090973;28;20695;-61
2022/08/10 00:34:49;;;;;;;4.53;2.57;;;;;;;25.48;42.55;100791.69;5090939;28;20267;-61
2022/08/10 00:37:18;;;;;;;4.53;2.40;;;;;;;25.49;42.44;100804.88;5090525;28;20175;-61
2022/08/10 00:39:44;;;;;;;3.83;2.47;;;;;;;25.48;42.17;100791.69;5090931;28;20178;-61
2022/08/10 00:42:11;;;;;;;4.90;2.63;;;;;;;25.48;42.33;100793.75;5090950;28;20923;-61
2022/08/10 00:44:44;;;;;;;4.73;2.20;;;;;;;25.48;42.31;100797.47;5090871;28;20539;-61
2022/08/10 00:47:10;;;;;;;3.80;2.60;;;;;;;25.49;42.29;100798.31;5091002;28;20421;-61
2022/08/10 00:49:36;;;;;;;4.60;2.47;;;;;;;25.50;42.56;100792.09;5090714;28;20431;-61
2022/08/10 00:52:01;;;;;;;8.00;2.60;;;;;;;25.51;42.86;100790.03;5089330;28;21002;-61
2022/08/10 00:54:27;;;;;;;4.93;2.40;;;;;;;25.50;42.45;100795.00;5090785;28;20175;-61
2022/08/10 00:56:53;;;;;;;5.03;2.40;;;;;;;25.50;42.45;100795.00;5093925;28;20182;-61
2022/08/10 00:59:18;;;;;;;5.50;2.53;;;;;;;25.51;42.60;100796.66;5093388;28;20173;-61
2022/08/10 01:01:43;;;;;;;3.53;2.30;;;;;;;25.52;42.56;100791.66;5093396;28;20174;-61
2022/08/10 01:04:09;;;;;;;4.00;1.87;;;;;;;25.51;42.39;100790.84;5088755;28;20191;-61
2022/08/10 01:06:40;;;;;;;5.23;2.30;;;;;;;25.53;42.42;100793.34;5094306;28;20600;-61
2022/08/10 01:09:24;;;;;;;6.33;2.50;;;;;;;25.52;42.24;100786.72;5094650;28;20178;-61
2022/08/10 01:12:00;;;;;;;4.37;2.50;;;;;;;25.51;42.28;100790.84;5094142;28;20474;-61
2022/08/10 01:14:38;;;;;;;4.57;2.17;;;;;;;25.51;42.26;100792.91;5093080;28;20472;-61
2022/08/10 01:17:12;;;;;;;3.70;2.03;;;;;;;25.51;41.93;100793.75;5090956;28;20502;-61
2022/08/10 01:19:57;;;;;;;4.30;2.40;;;;;;;25.51;42.70;100799.53;5092579;28;22259;-62
2022/08/10 01:22:44;;;;;;;4.33;2.60;;;;;;;25.51;42.56;100790.03;5073734;28;20443;-62
2022/08/10 01:25:24;;;;;;;6.17;2.30;;;;;;;25.52;41.99;100798.28;5073774;28;20423;-62
2022/08/10 01:28:04;;;;;;;4.87;2.37;;;;;;;25.51;42.51;100798.69;5073831;28;20429;-61
2022/08/10 01:30:29;;;;;;;4.80;2.17;;;;;;;25.51;42.45;100793.75;5072213;28;20424;-61
2022/08/10 01:33:08;;;;;;;3.77;2.67;;;;;;;25.51;42.45;100792.91;5071451;28;20428;-61
2022/08/10 01:35:51;;;;;;;6.17;2.27;;;;;;;25.50;42.48;100799.94;5071598;28;20526;-61
2022/08/10 01:38:28;;;;;;;4.20;2.73;;;;;;;25.49;42.54;100792.50;5073118;28;20932;-61
2022/08/10 01:40:56;;;;;;;3.80;2.63;;;;;;;25.50;42.64;100800.78;5088315;28;20779;-61
2022/08/10 01:43:21;;;;;;;3.17;2.17;;;;;;;25.50;42.73;100789.22;5088025;28;20479;-61
2022/08/10 01:45:50;;;;;;;4.77;2.27;;;;;;;25.51;42.73;100796.66;5091967;28;20424;-61
2022/08/10 01:48:31;;;;;;;3.70;2.73;;;;;;;25.50;42.60;100800.78;5092331;28;20178;-61
2022/08/10 01:51:28;;;;;;;3.80;2.20;;;;;;;25.50;42.71;100797.88;5093679;28;20412;-61
2022/08/10 01:54:00;;;;;;;4.50;2.37;;;;;;;25.50;42.38;100800.78;5080882;28;20864;-61
2022/08/10 01:56:28;;;;;;;2.90;2.10;;;;;;;25.50;42.63;100806.56;5056456;28;20518;-61
2022/08/10 01:59:22;;;;;;;4.37;2.33;;;;;;;25.49;42.54;100795.41;5069047;28;20440;-61
2022/08/10 02:01:49;;;;;;;5.53;2.53;;;;;;;25.48;42.80;100806.13;5077446;28;20468;-61
2022/08/10 02:04:15;;;;;;;4.10;2.20;;;;;;;25.48;42.71;100791.69;5091947;28;20571;-61
2022/08/10 02:06:42;;;;;;;4.50;2.10;;;;;;;25.48;42.55;100796.66;5091530;28;20420;-61
2022/08/10 02:09:08;;;;;;;4.90;2.47;;;;;;;25.48;43.18;100797.47;5093380;28;20495;-61
2022/08/10 02:11:35;;;;;;;4.17;2.20;;;;;;;25.48;42.55;100790.88;5091717;28;20475;-61
2022/08/10 02:14:00;;;;;;;3.43;2.67;;;;;;;25.48;42.95;100793.75;5091958;28;20202;-61
2022/08/10 02:16:26;;;;;;;3.50;2.60;;;;;;;25.48;42.31;100800.34;5075143;28;20927;-61
2022/08/10 02:18:52;;;;;;;4.10;2.20;;;;;;;25.49;42.23;100795.41;5091749;28;20630;-61
2022/08/10 02:21:17;;;;;;;6.47;2.70;;;;;;;25.48;42.41;100802.44;5092865;28;20263;-61
2022/08/10 02:23:43;;;;;;;3.00;2.20;;;;;;;25.47;42.33;100801.59;5091544;28;21248;-61
2022/08/10 02:26:09;;;;;;;7.27;2.77;;;;;;;25.47;42.66;100813.16;5074872;28;20541;-61
2022/08/10 02:28:34;;;;;;;5.60;3.13;;;;;;;25.46;42.33;100799.97;5074655;28;20182;-61
2022/08/10 02:31:05;;;;;;;4.77;2.43;;;;;;;25.46;41.88;100810.69;5091471;28;20186;-61
2022/08/10 02:33:31;;;;;;;4.30;2.30;;;;;;;25.42;42.11;100804.91;5092704;28;20189;-61
2022/08/10 02:35:56;;;;;;;4.23;2.60;;;;;;;25.43;41.76;100805.75;5091427;28;20413;-61
2022/08/10 02:38:36;;;;;;;6.20;2.47;;;;;;;25.43;42.44;100803.66;5074398;28;20178;-61
2022/08/10 02:41:11;;;;;;;4.03;2.40;;;;;;;25.43;42.40;100806.56;5074693;28;20166;-61
2022/08/10 02:43:45;;;;;;;4.77;2.57;;;;;;;25.44;42.18;100808.19;5091363;28;20853;-61
2022/08/10 02:46:13;;;;;;;3.30;2.17;;;;;;;25.43;42.14;100814.44;5070874;28;20434;-61
2022/08/10 02:48:46;;;;;;;4.57;2.50;;;;;;;25.43;42.00;100817.31;5071277;28;20421;-61
2022/08/10 02:51:17;;;;;;;4.87;2.70;;;;;;;25.42;41.99;100819.38;5053715;28;20737;-61
2022/08/10 02:53:48;;;;;;;5.13;2.70;;;;;;;25.41;41.81;100817.72;5070061;28;20470;-61
2022/08/10 02:56:45;;;;;;;5.43;2.90;;;;;;;25.42;42.42;100816.47;5071375;28;20980;-61
2022/08/10 02:59:13;;;;;;;5.73;2.30;;;;;;;25.41;42.09;100819.78;5053384;28;21161;-61
2022/08/10 03:01:43;;;;;;;5.73;2.63;;;;;;;25.40;42.07;100816.09;5070670;28;20432;-61
2022/08/10 03:04:38;;;;;;;5.23;2.40;;;;;;;25.40;42.53;100816.09;5072025;28;20547;-61
2022/08/10 03:07:05;;;;;;;4.70;2.63;;;;;;;25.39;42.25;100808.63;5073398;28;20471;-61
2022/08/10 03:09:31;;;;;;;4.87;2.00;;;;;;;25.39;41.75;100810.72;5087518;28;20953;-61
2022/08/10 03:11:56;;;;;;;4.70;2.70;;;;;;;25.38;41.24;100809.88;5059525;28;20582;-61
2022/08/10 03:14:22;;;;;;;6.20;2.80;;;;;;;25.39;41.83;100816.50;5070459;28;20425;-62
2022/08/10 03:16:47;;;;;;;7.00;2.40;;;;;;;25.37;41.88;100816.91;5053902;28;20244;-61
2022/08/10 03:19:12;;;;;;;3.80;2.60;;;;;;;25.35;41.81;100816.50;5069392;28;20183;-61
2022/08/10 03:21:38;;;;;;;5.50;2.80;;;;;;;25.36;42.28;100818.16;5071591;28;20179;-61
2022/08/10 03:24:04;;;;;;;4.87;2.60;;;;;;;25.37;41.81;100825.56;5069464;28;20199;-61
2022/08/10 03:26:30;;;;;;;4.70;2.30;;;;;;;25.37;42.03;100818.94;5070627;28;20202;-61
2022/08/10 03:28:56;;;;;;;3.33;2.17;;;;;;;25.38;41.92;100814.84;5083153;28;20261;-61
2022/08/10 03:31:21;;;;;;;3.60;2.20;;;;;;;25.37;41.75;100818.94;5089334;28;20431;-61
2022/08/10 03:33:47;;;;;;;3.37;2.20;;;;;;;25.36;41.73;100817.31;5072287;28;20420;-61
2022/08/10 03:36:12;;;;;;;3.63;2.13;;;;;;;25.35;41.51;100819.41;5090538;28;20221;-61
2022/08/10 03:38:39;;;;;;;3.20;1.90;;;;;;;25.36;41.68;100825.97;5089253;28;20213;-61
2022/08/10 03:41:05;;;;;;;4.10;2.30;;;;;;;25.36;41.94;100817.31;5091631;28;20175;-61
2022/08/10 03:43:30;;;;;;;5.67;2.20;;;;;;;25.35;42.39;100821.44;5091408;28;20547;-61
2022/08/10 03:45:57;;;;;;;12.13;2.60;;;;;;;25.35;42.25;100819.41;5090204;28;20903;-61
2022/08/10 03:48:26;;;;;;;5.70;2.60;;;;;;;25.35;42.19;100816.50;5073315;28;20182;-61
2022/08/10 03:50:52;;;;;;;4.20;2.20;;;;;;;25.35;42.43;100822.28;5090231;28;20433;-61
2022/08/10 03:53:18;;;;;;;7.00;2.30;;;;;;;25.35;42.03;100815.66;5091245;28;20424;-61
2022/08/10 03:55:44;;;;;;;4.77;2.50;;;;;;;25.32;41.74;100834.66;5073057;28;20424;-61
2022/08/10 03:58:10;;;;;;;4.40;2.37;;;;;;;25.31;41.34;100832.19;5074755;28;20174;-61
2022/08/10 04:00:35;;;;;;;2.67;2.00;;;;;;;25.28;41.87;100830.94;5071708;28;20223;-61
2022/08/10 04:03:04;;;;;;;3.20;2.27;;;;;;;25.27;41.35;100826.41;5068988;28;20892;-61
2022/08/10 04:05:32;;;;;;;4.40;2.57;;;;;;;25.27;41.53;100837.13;5070046;28;20627;-61
2022/08/10 04:07:58;;;;;;;7.00;2.50;;;;;;;25.26;41.44;100836.34;5070242;28;20422;-61
2022/08/10 04:10:25;;;;;;;7.10;2.47;;;;;;;25.26;41.36;100836.34;5083130;28;20475;-61
2022/08/10 04:12:51;;;;;;;3.33;2.30;;;;;;;25.25;41.43;100842.50;5090525;28;20417;-61
2022/08/10 04:15:17;;;;;;;4.97;2.97;;;;;;;25.25;41.41;100836.72;5089564;28;20413;-61
2022/08/10 04:17:42;;;;;;;5.27;2.20;;;;;;;25.26;41.57;100844.16;5091117;28;20170;-61
2022/08/10 04:20:17;;;;;;;5.13;2.63;;;;;;;25.24;41.60;100846.63;5090940;28;20178;-61
2022/08/10 04:22:43;;;;;;;7.67;2.40;;;;;;;25.24;41.65;100849.50;5089981;28;20158;-61
2022/08/10 04:25:09;;;;;;;4.20;2.20;;;;;;;25.23;41.42;100850.75;5089253;28;20531;-61
2022/08/10 04:27:34;;;;;;;6.07;2.77;;;;;;;25.23;41.56;100850.75;5091056;28;21078;-61
2022/08/10 04:29:59;;;;;;;4.23;2.30;;;;;;;25.21;41.53;100848.28;5092986;28;20181;-61
2022/08/10 04:32:25;;;;;;;4.57;2.70;;;;;;;25.21;41.35;100856.09;5094064;28;20190;-61
2022/08/10 04:34:51;;;;;;;3.27;2.53;;;;;;;25.21;41.14;100856.94;5076588;28;20174;-61
2022/08/10 04:37:17;;;;;;;3.50;1.97;;;;;;;25.21;41.44;100850.31;5093866;28;20447;-61
2022/08/10 04:39:42;;;;;;;4.03;2.40;;;;;;;25.20;41.40;100863.97;5093948;28;20181;-62
2022/08/10 04:42:07;;;;;;;7.07;3.00;;;;;;;25.17;41.23;100856.13;5095017;28;20178;-61
2022/08/10 04:44:33;;;;;;;6.27;2.23;;;;;;;25.17;41.37;100861.06;5093452;28;20190;-61
2022/08/10 04:46:58;;;;;;;3.77;2.60;;;;;;;25.15;41.40;100860.66;5094895;28;20179;-61
2022/08/10 04:49:24;;;;;;;3.60;2.33;;;;;;;25.16;41.40;100865.19;5094782;28;20636;-62
2022/08/10 04:51:49;;;;;;;5.40;3.13;;;;;;;25.14;41.28;100868.50;5095135;28;20182;-62
2022/08/10 04:54:15;;;;;;;3.43;2.00;;;;;;;25.09;41.30;100854.44;5094858;28;20617;-62
2022/08/10 04:56:40;;;;;;;3.80;2.33;;;;;;;25.09;41.44;100866.00;5094799;28;20186;-62
2022/08/10 04:59:07;;;;;;;8.07;2.60;;;;;;;25.12;41.17;100858.56;5093405;28;20175;-62
2022/08/10 05:01:33;;;;;;;4.70;2.50;;;;;;;25.06;41.13;100866.00;5094695;28;20197;-61
2022/08/10 05:03:58;;;;;;;8.77;2.20;;;;;;;25.07;41.39;100861.88;5085765;28;20543;-63
2022/08/10 05:06:24;;;;;;;3.97;2.60;;;;;;;25.08;41.20;100869.34;5074266;28;20543;-62
2022/08/10 05:08:49;;;;;;;7.07;2.90;;;;;;;25.09;41.21;100870.97;5074333;28;20182;-62
2022/08/10 05:11:15;;;;;;;8.13;2.63;;;;;;;25.09;41.28;100866.00;5072474;28;20230;-61
2022/08/10 05:13:40;;;;;;;5.23;2.50;;;;;;;25.10;41.45;100872.63;5074332;28;20172;-62
2022/08/10 05:16:06;;;;;;;8.43;2.60;;;;;;;25.12;41.25;100867.25;5073994;28;20656;-61
2022/08/10 05:18:31;;;;;;;7.07;2.97;;;;;;;25.09;40.97;100866.00;5074147;28;20178;-61
2022/08/10 05:20:56;;;;;;;7.00;2.47;;;;;;;25.09;41.29;100871.78;5073778;28;20194;-61
2022/08/10 05:23:22;;;;;;;5.60;1.87;;;;;;;25.10;41.27;100866.84;5073880;28;20199;-61
2022/08/10 05:25:47;;;;;;;3.63;2.40;;;;;;;25.08;41.27;100875.91;5073976;28;20665;-61
2022/08/10 05:28:13;;;;;;;4.77;2.93;;;;;;;25.03;41.16;100873.44;5074224;28;20175;-62
2022/08/10 05:30:38;;;;;;;5.00;2.27;;;;;;;25.06;41.15;100869.75;5073535;28;20175;-62
2022/08/10 05:33:04;;;;;;;9.67;2.70;;;;;;;25.08;41.21;100880.91;5073347;28;20179;-61
2022/08/10 05:35:29;;;;;;;6.23;2.50;;;;;;;24.99;41.35;100877.56;5073391;28;20175;-62
2022/08/10 05:37:55;;;;;;;9.60;2.37;;;;;;;25.02;41.43;100877.56;5086371;28;20166;-62
2022/08/10 05:40:22;;;;;;;7.67;2.70;;;;;;;25.02;41.40;100876.72;5074235;28;20205;-61
2022/08/10 05:42:47;;;;;;;8.93;2.67;;;;;;;25.03;41.28;100885.00;5091954;28;20408;-61
2022/08/10 05:45:21;;;;;;;6.43;2.80;;;;;;;25.05;41.18;100885.44;5092577;28;20970;-61
2022/08/10 05:47:46;;;;;;;9.60;2.37;;;;;;;25.05;41.39;100881.72;5085349;28;20275;-61
2022/08/10 05:50:13;;;;;;;7.07;2.73;;;;;;;24.99;41.20;100881.28;5072638;28;20497;-61
2022/08/10 05:52:39;;;;;;;4.23;2.10;;;;;;;25.03;41.26;100885.00;5073593;28;20177;-61
2022/08/10 05:55:05;;;;;;;10.43;2.60;;;;;;;25.04;41.73;100880.88;5071804;28;20425;-61
2022/08/10 05:57:30;;;;;;;8.37;2.40;;;;;;;25.06;41.31;100877.56;5076006;28;20616;-61
2022/08/10 05:59:59;;;;;;;5.37;2.33;;;;;;;25.03;41.38;100885.00;5093339;28;20436;-61
2022/08/10 06:02:42;;;;;;;6.30;2.80;;;;;;;25.05;41.31;100888.31;5091828;28;20174;-61
2022/08/10 06:05:16;;;;;;;14.27;3.00;;;;;;;25.05;41.61;100888.31;5092935;28;20444;-61
2022/08/10 06:07:45;;;;;;;5.00;2.10;;;;;;;25.09;41.27;100889.13;5093173;28;20431;-61
2022/08/10 06:10:12;;;;;;;7.67;2.53;;;;;;;24.77;42.63;100884.53;5088532;28;20447;-61
2022/08/10 06:12:38;;;;;;;3.70;2.30;;;;;;;25.01;43.68;100881.72;5070810;28;20433;-62
2022/08/10 06:15:03;;;;;;;8.80;2.80;;;;;;;25.21;45.13;100885.84;5072300;28;20467;-61
2022/08/10 06:17:30;;;;;;;12.00;4.50;;;;;;;25.51;46.65;100883.41;5071719;28;20175;-61
2022/08/10 06:19:56;;;;;;;15.13;3.57;;;;;;;25.28;46.46;100890.84;5070606;28;20167;-61
2022/08/10 06:22:23;;;;;;;7.20;3.00;;;;;;;25.38;46.73;100884.25;5078842;28;20429;-61
2022/08/10 06:24:48;;;;;;;6.80;2.87;;;;;;;25.11;46.69;100888.72;5091208;28;20463;-62
2022/08/10 06:27:14;;;;;;;6.17;3.10;;;;;;;25.30;46.61;100892.09;5090413;28;20420;-61
2022/08/10 06:29:40;;;;;;;4.13;2.47;;;;;;;25.35;45.77;100885.06;5090333;28;20173;-62
2022/08/10 06:32:06;;;;;;;15.07;2.93;;;;;;;25.32;46.09;100874.31;5089011;28;20178;-62
2022/08/10 06:34:32;;;;;;;9.10;2.40;;;;;;;25.07;45.44;100885.84;5090142;28;20454;-61
2022/08/10 06:37:00;;;;;;;7.10;2.30;;;;;;;24.92;46.21;100877.53;5091653;28;20192;-62
2022/08/10 06:39:26;;;;;;;6.67;2.30;;;;;;;25.20;45.78;100884.19;5089704;28;20423;-62
2022/08/10 06:41:53;;;;;;;13.90;2.93;;;;;;;25.16;45.98;100894.09;5085240;28;20424;-62
2022/08/10 06:44:21;;;;;;;5.17;2.60;;;;;;;25.10;46.25;100885.03;5084507;28;20514;-61
2022/08/10 06:46:49;;;;;;;5.87;2.50;;;;;;;25.03;45.98;100878.41;5067148;28;20876;-61
2022/08/10 06:49:14;;;;;;;3.50;2.20;;;;;;;25.02;45.55;100883.34;5089578;28;20409;-61
2022/08/10 06:51:40;;;;;;;4.80;2.30;;;;;;;25.03;45.46;100881.31;5072347;28;20416;-62
2022/08/10 06:54:06;;;;;;;5.07;2.60;;;;;;;25.07;44.94;100885.84;5089957;28;20175;-62
2022/08/10 06:56:34;;;;;;;4.33;2.30;;;;;;;25.02;45.03;100885.41;5071769;28;20179;-62
2022/08/10 06:59:04;;;;;;;5.70;2.47;;;;;;;25.07;44.90;100885.00;5069464;28;20459;-62
2022/08/10 07:01:32;;;;;;;7.13;2.43;;;;;;;25.06;45.81;100884.19;5069020;28;20440;-62
2022/08/10 07:04:01;;;;;;;9.93;2.50;;;;;;;25.02;45.57;100883.34;5071702;28;20459;-62
2022/08/10 07:06:26;;;;;;;6.73;2.60;;;;;;;24.97;45.96;100868.47;5089838;28;20411;-62
2022/08/10 07:08:52;;;;;;;4.57;2.70;;;;;;;25.16;45.96;100879.63;5090653;28;20923;-62
2022/08/10 07:11:18;;;;;;;9.03;2.60;;;;;;;25.09;45.27;100879.66;5071616;28;20244;-62
2022/08/10 07:13:43;;;;;;;8.23;2.17;;;;;;;25.02;44.94;100877.56;5090659;28;20171;-61
2022/08/10 07:16:10;;;;;;;10.80;2.73;;;;;;;25.09;45.48;100876.75;5071474;28;20986;-62
2022/08/10 07:18:35;;;;;;;4.83;2.57;;;;;;;25.15;45.20;100875.94;5089888;28;20182;-62
2022/08/10 07:21:01;;;;;;;4.20;2.17;;;;;;;25.05;44.58;100878.81;5071112;28;20432;-62
2022/08/10 07:23:26;;;;;;;5.03;2.33;;;;;;;25.00;44.00;100891.63;5089548;28;20863;-62
2022/08/10 07:25:52;;;;;;;10.90;2.60;;;;;;;24.94;44.16;100877.97;5088027;28;20174;-62
2022/08/10 07:28:17;;;;;;;8.67;2.27;;;;;;;25.05;44.87;100879.66;5079047;28;20202;-62
2022/08/10 07:30:42;;;;;;;4.97;2.60;;;;;;;25.03;43.81;100869.75;5075524;28;20174;-62
2022/08/10 07:33:08;;;;;;;5.53;2.47;;;;;;;25.23;44.21;100871.81;5088347;28;20182;-61
2022/08/10 07:35:34;;;;;;;3.60;2.10;;;;;;;25.09;44.14;100871.78;5088937;28;20214;-61
2022/08/10 07:38:02;;;;;;;5.77;2.43;;;;;;;25.11;44.66;100875.09;5085529;28;20271;-61
2022/08/10 07:40:28;;;;;;;9.37;3.40;;;;;;;25.18;44.50;100874.28;5069724;28;20208;-61
2022/08/10 07:42:56;;;;;;;9.97;2.53;;;;;;;25.12;44.60;100870.13;5068689;28;20463;-61
2022/08/10 07:45:23;;;;;;;7.53;2.80;;;;;;;25.21;44.27;100868.50;5071406;28;20546;-61
2022/08/10 07:47:53;;;;;;;8.80;2.20;;;;;;;25.25;44.06;100862.72;5069242;28;20421;-62
2022/08/10 07:50:19;;;;;;;6.80;2.60;;;;;;;25.27;44.25;100871.81;5069997;28;20413;-60
2022/08/10 07:52:44;;;;;;;8.50;2.67;;;;;;;25.32;43.61;100869.34;5050814;28;20432;-61
2022/08/10 07:55:13;;;;;;;5.67;2.10;;;;;;;25.22;43.80;100872.19;5077114;28;20166;-61
2022/08/10 07:57:38;;;;;;;9.17;2.67;;;;;;;25.34;43.87;100861.09;5070755;28;20838;-61
2022/08/10 08:00:06;;;;;;;8.50;2.63;;;;;;;25.31;44.23;100870.59;5067266;28;20470;-60
2022/08/10 08:02:35;;;;;;;7.20;2.33;;;;;;;25.39;44.21;100862.75;5075822;28;20182;-61
2022/08/10 08:05:03;;;;;;;4.97;2.33;;;;;;;25.41;44.25;100864.00;5086706;28;20514;-61
2022/08/10 08:07:28;;;;;;;5.97;2.50;;;;;;;25.43;43.92;100870.16;5085853;28;20444;-61
2022/08/10 08:09:54;;;;;;;4.80;2.37;;;;;;;25.37;43.84;100866.06;5089011;28;20428;-64
2022/08/10 08:12:20;;;;;;;4.40;1.90;;;;;;;25.45;43.23;100856.16;5086777;28;20253;-61
2022/08/10 08:14:45;;;;;;;8.00;2.10;;;;;;;25.54;43.54;100867.28;5088876;28;20614;-61
2022/08/10 08:17:10;;;;;;;8.47;2.20;;;;;;;25.60;46.63;100863.56;5070921;28;20820;-61
2022/08/10 08:19:36;;;;;;;8.20;2.40;;;;;;;25.61;45.42;100856.53;5085686;28;20189;-62
2022/08/10 08:22:02;;;;;;;7.67;2.73;;;;;;;25.59;43.95;100861.06;5082207;28;20183;-62
2022/08/10 08:24:28;;;;;;;8.27;2.83;;;;;;;25.54;44.13;100850.72;5080741;28;20706;-62
2022/08/10 08:26:54;;;;;;;9.67;2.63;;;;;;;25.61;44.07;100852.78;5090157;28;20445;-61
2022/08/10 08:29:19;;;;;;;9.13;2.20;;;;;;;25.61;43.04;100850.75;5088788;28;20174;-61
2022/08/10 08:31:45;;;;;;;11.30;3.33;;;;;;;25.67;43.32;100845.34;5089584;28;20470;-61
2022/08/10 08:34:10;;;;;;;5.47;2.50;;;;;;;25.71;43.70;100844.09;5088881;28;20170;-61
2022/08/10 08:36:38;;;;;;;11.30;3.50;;;;;;;25.72;42.81;100847.81;5088549;28;20600;-61
2022/08/10 08:39:03;;;;;;;5.60;2.63;;;;;;;25.74;43.39;100851.94;5090526;28;20193;-61
2022/08/10 08:41:46;;;;;;;4.20;2.00;;;;;;;25.76;43.21;100842.84;5090971;28;20425;-61
2022/08/10 08:44:33;;;;;;;6.63;2.50;;;;;;;25.79;42.52;100844.91;5089614;28;20205;-61
2022/08/10 08:47:23;;;;;;;6.83;2.27;;;;;;;25.77;43.10;100827.97;5069444;28;20451;-61
2022/08/10 08:50:10;;;;;;;6.77;2.27;;;;;;;25.78;42.42;100837.44;5070038;28;20402;-61
2022/08/10 08:52:53;;;;;;;5.13;1.97;;;;;;;25.84;42.57;100833.72;5069664;28;20406;-61
2022/08/10 08:55:31;;;;;;;4.37;2.37;;;;;;;25.83;42.54;100831.25;5069931;28;20421;-62
2022/08/10 08:58:27;;;;;;;4.07;2.23;;;;;;;25.82;42.14;100826.69;5053134;28;20942;-62
2022/08/10 09:01:20;;;;;;;9.10;2.30;;;;;;;25.86;42.21;100825.47;5069694;28;20446;-62
2022/08/10 09:04:15;;;;;;;4.93;2.00;;;;;;;25.86;42.61;100818.84;5087188;28;20560;-62
2022/08/10 09:07:10;;;;;;;6.57;2.53;;;;;;;25.92;41.99;100826.72;5067930;28;21123;-62
2022/08/10 09:09:49;;;;;;;3.93;2.07;;;;;;;25.93;41.87;100819.66;5075032;28;20826;-62
2022/08/10 09:12:17;;;;;;;5.27;2.43;;;;;;;25.98;41.78;100807.66;5089332;28;20468;-62
2022/08/10 09:14:59;;;;;;;3.83;2.03;;;;;;;26.05;41.04;100824.19;5090140;28;20415;-62
2022/08/10 09:17:52;;;;;;;4.10;1.77;;;;;;;26.20;38.22;100812.09;5091023;28;20793;-62
2022/08/10 09:20:38;;;;;;;7.83;2.13;;;;;;;26.22;38.23;100814.59;5092709;28;20958;-62
2022/08/10 09:23:36;;;;;;;4.30;1.77;;;;;;;26.25;36.14;100811.66;5091262;28;20396;-61
2022/08/10 09:26:13;;;;;;;5.13;1.80;;;;;;;26.29;36.52;100806.69;5093180;28;20427;-61
2022/08/10 09:28:39;;;;;;;5.83;1.57;;;;;;;26.37;35.70;100804.56;5093626;28;20416;-61
2022/08/10 09:31:06;;;;;;;4.90;1.97;;;;;;;26.42;34.41;100812.81;5092641;28;20427;-61
2022/08/10 09:34:04;;;;;;;8.00;1.80;;;;;;;26.31;35.78;100807.09;5093410;28;20174;-61
2022/08/10 09:36:50;;;;;;;3.70;1.50;;;;;;;26.34;35.83;100809.13;5092038;28;20421;-61
2022/08/10 09:39:45;;;;;;;4.63;1.37;;;;;;;26.40;35.42;100807.44;5091055;28;20439;-61
2022/08/10 09:42:14;;;;;;;2.80;1.60;;;;;;;26.44;34.76;100808.25;5086891;28;20417;-61
2022/08/10 09:44:54;;;;;;;4.20;1.50;;;;;;;26.51;34.08;100804.50;5074158;28;20444;-61
2022/08/10 09:48:05;;;;;;;4.83;1.87;;;;;;;26.46;33.72;100814.47;5080967;28;20470;-61
2022/08/10 09:50:45;;;;;;;5.60;2.13;;;;;;;26.50;33.92;100809.44;5076958;28;20519;-61
2022/08/10 09:53:45;;;;;;;3.60;1.67;;;;;;;26.37;34.44;100793.81;5083285;28;20444;-61
2022/08/10 09:56:35;;;;;;;3.70;1.40;;;;;;;26.55;33.82;100800.34;5073524;28;20417;-61
2022/08/10 09:59:11;;;;;;;2.47;1.73;;;;;;;26.50;33.54;100803.66;5074593;28;20513;-61
2022/08/10 10:01:50;;;;;;;3.03;1.50;;;;;;;26.46;33.93;100790.47;5055543;28;20626;-61
2022/08/10 10:04:27;;;;;;;4.90;2.20;;;;;;;26.40;34.45;100787.16;5072430;28;20782;-61
2022/08/10 10:06:58;;;;;;;5.60;1.83;;;;;;;26.54;34.37;100781.28;5071462;28;20587;-62
2022/08/10 10:09:31;;;;;;;3.70;1.57;;;;;;;26.64;34.17;100785.41;5087570;28;20504;-61
2022/08/10 10:12:15;;;;;;;6.40;2.07;;;;;;;26.53;34.53;100785.44;5087686;28;20476;-61
2022/08/10 10:18:02;;;;;;;4.40;1.30;;;;;;;26.55;34.24;100782.97;5071996;28;20435;-61
2022/08/10 10:20:32;;;;;;;3.73;1.60;;;;;;;26.52;34.03;100786.69;5072715;28;20402;-61
2022/08/10 10:23:09;;;;;;;3.70;1.20;;;;;;;26.64;34.31;100791.22;5086851;28;20443;-61
2022/08/10 10:25:38;;;;;;;7.73;1.93;;;;;;;26.77;33.05;100792.34;5093238;28;20416;-61
2022/08/10 10:28:28;;;;;;;4.00;1.80;;;;;;;26.78;33.41;100789.00;5074695;28;20412;-61
2022/08/10 10:31:15;;;;;;;8.60;1.83;;;;;;;26.81;33.13;100791.06;5092952;28;20409;-61
2022/08/10 10:34:02;;;;;;;3.60;1.63;;;;;;;26.71;33.28;100791.16;5092757;28;21214;-61
2022/08/10 10:36:27;;;;;;;3.93;1.90;;;;;;;26.80;32.88;100785.69;5076261;28;20413;-61
2022/08/10 10:38:54;;;;;;;3.33;1.70;;;;;;;26.78;32.74;100779.47;5071970;28;20432;-61
2022/08/10 10:41:34;;;;;;;6.77;1.90;;;;;;;26.74;32.85;100775.81;5071931;28;20175;-61
2022/08/10 10:44:27;;;;;;;3.03;1.60;;;;;;;26.73;33.15;100795.25;5070181;28;20472;-61
2022/08/10 10:47:14;;;;;;;4.40;1.60;;;;;;;26.62;33.05;100774.25;5086711;28;20416;-61
2022/08/10 10:49:41;;;;;;;3.30;1.80;;;;;;;26.75;32.90;100768.78;5091728;28;20426;-61
2022/08/10 10:52:25;;;;;;;6.90;1.80;;;;;;;26.73;32.40;100772.09;5080299;28;20425;-61
2022/08/10 10:55:28;;;;;;;2.67;1.70;;;;;;;26.72;33.07;100770.44;5072200;28;20409;-61
2022/08/10 10:58:00;;;;;;;4.63;1.70;;;;;;;26.79;32.74;100758.78;5070869;28;20507;-61
2022/08/10 11:00:28;;;;;;;4.43;2.00;;;;;;;26.81;33.27;100767.06;5071066;28;20927;-61
2022/08/10 11:03:00;;;;;;;4.70;1.80;;;;;;;26.84;33.13;100758.31;5064548;28;20469;-61
2022/08/10 11:05:46;;;;;;;4.73;1.83;;;;;;;26.87;33.03;100768.25;5091994;28;20456;-61
2022/08/10 11:08:16;;;;;;;5.47;1.90;;;;;;;26.78;32.93;100759.19;5088222;28;20436;-61
2022/08/10 11:10:41;;;;;;;2.30;1.50;;;;;;;26.72;33.46;100753.06;5071564;28;20481;-61
2022/08/10 11:13:33;;;;;;;4.33;1.90;;;;;;;26.79;33.50;100761.69;5071997;28;20421;-61
2022/08/10 11:16:10;;;;;;;4.53;1.80;;;;;;;26.89;33.55;100759.97;5071613;28;20203;-61
2022/08/10 11:19:18;;;;;;;3.80;2.03;;;;;;;26.89;33.22;100766.56;5070763;28;20834;-61
2022/08/10 11:21:53;;;;;;;2.73;1.77;;;;;;;26.79;33.01;100767.47;4992827;28;21258;-61
2022/08/10 11:24:23;;;;;;;4.93;1.73;;;;;;;26.85;32.70;100759.97;5064118;28;20463;-62
2022/08/10 11:26:52;;;;;;;3.10;1.70;;;;;;;26.80;33.49;100760.44;5069573;28;20859;-62
2022/08/10 11:29:31;;;;;;;4.37;1.30;;;;;;;26.72;33.70;100747.25;5069213;28;20448;-62
2022/08/10 11:32:33;;;;;;;3.97;1.50;;;;;;;26.86;33.14;100752.94;5071400;28;20435;-62
2022/08/10 11:35:11;;;;;;;7.60;2.00;;;;;;;26.99;33.23;100754.06;5061166;28;20459;-62
2022/08/10 11:38:08;;;;;;;7.23;1.57;;;;;;;27.16;32.50;100750.19;5091344;28;20953;-62
2022/08/10 11:40:36;;;;;;;6.17;1.90;;;;;;;27.19;31.66;100742.72;5074949;28;20429;-62
2022/08/10 11:43:20;;;;;;;4.23;1.63;;;;;;;27.07;32.16;100755.66;5076082;28;20973;-62
2022/08/10 11:45:49;;;;;;;15.67;2.00;;;;;;;27.05;32.83;100749.44;5073042;28;20458;-62